createdAt,value
2023-05-13T00:01:38.623Z,7.60
2023-05-13T00:06:40.534Z,9.00
2023-05-13T00:11:42.264Z,7.00
2023-05-13T00:16:43.909Z,7.00
2023-05-13T00:21:45.661Z,9.10
2023-05-13T00:26:47.253Z,8.20
2023-05-13T00:31:48.754Z,8.80
2023-05-13T00:36:50.292Z,8.50
2023-05-13T00:41:51.809Z,9.20
2023-05-13T00:46:53.961Z,8.70
2023-05-13T00:51:55.724Z,9.40
2023-05-13T00:56:58.337Z,9.00
2023-05-13T01:02:10.824Z,10.70
2023-05-13T01:07:21.636Z,11.80
2023-05-13T01:12:39.847Z,10.20
2023-05-13T01:17:49.781Z,10.60
2023-05-13T01:22:51.396Z,9.70
2023-05-13T01:27:53.865Z,8.80
2023-05-13T01:32:56.463Z,9.30
2023-05-13T01:37:59.475Z,9.00
2023-05-13T01:43:01.672Z,8.30
2023-05-13T01:48:03.460Z,9.60
2023-05-13T01:53:05.140Z,8.90
2023-05-13T01:58:06.719Z,8.70
2023-05-13T02:03:08.273Z,9.40
2023-05-13T02:08:09.925Z,9.90
2023-05-13T02:13:12.257Z,10.50
2023-05-13T02:18:14.131Z,9.80
2023-05-13T02:23:15.905Z,11.60
2023-05-13T02:28:17.798Z,11.90
2023-05-13T02:33:19.445Z,12.30
2023-05-13T02:38:21.025Z,10.30
2023-05-13T02:43:24.792Z,20.30
2023-05-13T02:48:26.341Z,12.60
2023-05-13T02:53:28.254Z,10.40
2023-05-13T02:58:29.768Z,10.60
2023-05-13T03:03:31.460Z,11.50
2023-05-13T03:08:33.077Z,11.00
2023-05-13T03:13:34.711Z,45.60
2023-05-13T03:18:36.328Z,13.30
2023-05-13T03:23:37.860Z,12.70
2023-05-13T03:28:39.443Z,11.30
2023-05-13T03:33:40.996Z,13.10
2023-05-13T03:38:42.513Z,13.40
2023-05-13T03:43:44.443Z,13.70
2023-05-13T03:48:45.956Z,14.10
2023-05-13T03:53:47.896Z,13.90
2023-05-13T03:58:49.400Z,15.70
2023-05-13T04:03:54.505Z,11.60
2023-05-13T04:08:56.579Z,13.20
2023-05-13T04:14:01.491Z,12.80
2023-05-13T04:19:03.097Z,13.60
2023-05-13T04:24:06.345Z,12.30
2023-05-13T04:29:08.506Z,12.90
2023-05-13T04:34:10.073Z,14.20
2023-05-13T04:39:11.744Z,14.80
2023-05-13T04:44:13.285Z,14.50
2023-05-13T04:49:14.831Z,10.90
2023-05-13T04:54:16.938Z,11.90
2023-05-13T04:59:18.726Z,12.70
2023-05-13T05:04:20.415Z,12.20
2023-05-13T05:09:21.983Z,12.30
2023-05-13T05:14:23.548Z,9.70
2023-05-13T05:19:25.093Z,12.70
2023-05-13T05:24:26.711Z,14.40
2023-05-13T05:29:28.223Z,12.30
2023-05-13T05:34:29.733Z,11.30
2023-05-13T05:39:31.241Z,11.00
2023-05-13T05:44:32.785Z,11.00
2023-05-13T05:49:34.337Z,9.40
2023-05-13T05:54:35.973Z,10.80
2023-05-13T05:59:37.660Z,27.10
2023-05-13T06:04:39.450Z,9.90
2023-05-13T06:09:41.164Z,9.50
2023-05-13T06:14:42.657Z,10.70
2023-05-13T06:19:44.153Z,9.20
2023-05-13T06:24:45.661Z,9.60
2023-05-13T06:29:47.211Z,9.50
2023-05-13T06:34:49.569Z,10.70
2023-05-13T06:39:51.449Z,11.10
2023-05-13T06:44:53.042Z,10.60
2023-05-13T06:49:54.630Z,8.30
2023-05-13T06:54:56.273Z,6.30
2023-05-13T06:59:57.764Z,9.30
2023-05-13T07:04:59.268Z,5.70
2023-05-13T07:10:01.319Z,6.90
2023-05-13T07:15:02.945Z,6.10
2023-05-13T07:20:05.364Z,28.80
2023-05-13T07:25:07.902Z,6.90
2023-05-13T07:30:11.643Z,6.10
2023-05-13T07:35:13.399Z,5.20
2023-05-13T07:40:15.357Z,5.70
2023-05-13T07:45:16.882Z,6.70
2023-05-13T07:50:18.439Z,4.50
2023-05-13T07:55:20.576Z,5.10
2023-05-13T08:00:29.121Z,5.40
2023-05-13T08:05:31.019Z,3.60
2023-05-13T08:10:32.508Z,4.40
2023-05-13T08:15:34.171Z,3.60
2023-05-13T08:20:36.050Z,4.50
2023-05-13T08:25:37.717Z,4.00
2023-05-13T08:30:42.196Z,2.50
2023-05-13T08:35:44.895Z,3.70
2023-05-13T08:45:50.685Z,2.80
2023-05-13T08:50:52.629Z,3.10
2023-05-13T08:55:55.061Z,2.80
2023-05-13T09:00:58.035Z,3.20
2023-05-13T09:06:03.435Z,3.30
2023-05-13T09:11:04.993Z,3.00
2023-05-13T09:16:07.212Z,3.10
2023-05-13T09:21:25.819Z,2.70
2023-05-13T09:26:29.192Z,2.70
2023-05-13T09:31:34.081Z,3.30
2023-05-13T09:36:35.986Z,2.80
2023-05-13T09:41:37.554Z,2.70
2023-05-13T09:46:39.240Z,3.10
2023-05-13T09:51:44.820Z,2.70
2023-05-13T09:56:46.873Z,2.80
2023-05-13T10:01:48.596Z,3.30
2023-05-13T10:06:50.742Z,3.10
2023-05-13T10:11:53.896Z,3.20
2023-05-13T10:16:57.711Z,3.10
2023-05-13T10:21:59.392Z,3.20
2023-05-13T10:27:03.123Z,2.90
2023-05-13T10:32:07.653Z,3.30
2023-05-13T10:37:48.104Z,2.70
2023-05-13T10:43:14.253Z,2.80
2023-05-13T10:48:17.260Z,3.20
2023-05-13T10:53:23.580Z,3.20
2023-05-13T10:58:33.950Z,3.60
2023-05-13T11:03:35.755Z,2.70
2023-05-13T11:08:42.817Z,3.10
2023-05-13T11:13:44.695Z,2.60
2023-05-13T11:18:47.050Z,2.00
2023-05-13T11:24:03.869Z,3.10
2023-05-13T11:29:06.572Z,2.90
2023-05-13T11:34:10.755Z,3.00
2023-05-13T11:39:14.893Z,2.70
2023-05-13T11:44:22.138Z,2.50
2023-05-13T11:49:40.728Z,2.80
2023-05-13T11:54:49.217Z,3.10
2023-05-13T12:00:05.013Z,2.90
2023-05-13T12:05:08.872Z,3.00
2023-05-13T12:10:10.955Z,3.40
2023-05-13T12:15:20.968Z,3.00
2023-05-13T12:20:24.614Z,3.30
2023-05-13T12:25:35.981Z,2.50
2023-05-13T12:30:46.605Z,2.70
2023-05-13T12:35:50.532Z,3.30
2023-05-13T12:40:53.210Z,3.10
2023-05-13T12:45:54.971Z,3.10
2023-05-13T12:50:56.662Z,2.90
2023-05-13T12:55:58.278Z,2.90
2023-05-13T13:01:07.635Z,5.20
2023-05-13T13:06:10.440Z,5.60
2023-05-13T13:11:18.305Z,3.10
2023-05-13T13:16:20.017Z,3.70
2023-05-13T13:21:21.528Z,4.30
2023-05-13T13:26:23.469Z,4.20
2023-05-13T13:31:25.049Z,3.60
2023-05-13T13:36:26.569Z,3.00
2023-05-13T13:41:28.046Z,3.60
2023-05-13T13:46:29.695Z,4.80
2023-05-13T13:51:32.031Z,3.20
2023-05-13T13:56:36.569Z,3.60
2023-05-13T14:01:40.316Z,3.50
2023-05-13T14:06:42.471Z,3.00
2023-05-13T14:16:45.633Z,4.10
2023-05-13T14:21:47.197Z,4.00
2023-05-13T14:26:48.858Z,3.00
2023-05-13T14:31:50.470Z,3.30
2023-05-13T14:36:52.525Z,3.70
2023-05-13T14:41:54.085Z,3.30
2023-05-13T14:46:56.212Z,3.00
2023-05-13T14:51:57.961Z,3.90
2023-05-13T14:56:59.474Z,3.80
2023-05-13T15:02:02.576Z,5.90
2023-05-13T15:07:05.451Z,4.70
2023-05-13T15:12:07.986Z,6.60
2023-05-13T15:17:11.906Z,4.70
2023-05-13T15:22:13.706Z,5.30
2023-05-13T15:27:15.668Z,6.10
2023-05-13T15:32:17.128Z,8.40
2023-05-13T15:37:18.644Z,6.30
2023-05-13T15:42:20.553Z,6.90
2023-05-13T15:47:22.254Z,5.90
2023-05-13T15:52:23.989Z,4.70
2023-05-13T15:57:25.612Z,3.70
2023-05-13T16:02:29.695Z,4.80
2023-05-13T16:07:31.483Z,4.10
2023-05-13T16:12:33.239Z,4.80
2023-05-13T16:17:35.832Z,4.20
2023-05-13T16:22:38.302Z,4.00
2023-05-13T16:27:43.135Z,5.30
2023-05-13T16:32:47.722Z,4.80
2023-05-13T16:37:50.526Z,5.70
2023-05-13T16:42:52.609Z,4.60
2023-05-13T16:47:54.226Z,3.10
2023-05-13T16:52:56.988Z,2.60
2023-05-13T16:57:58.572Z,2.70
2023-05-13T17:03:01.391Z,3.30
2023-05-13T17:08:04.088Z,4.20
2023-05-13T17:13:05.703Z,5.00
2023-05-13T17:18:07.490Z,2.70
2023-05-13T17:23:13.873Z,2.40
2023-05-13T17:28:15.460Z,2.50
2023-05-13T17:33:17.021Z,3.30
2023-05-13T17:38:18.768Z,3.40
2023-05-13T17:43:20.287Z,2.90
2023-05-13T17:48:22.026Z,4.00
2023-05-13T17:53:23.771Z,3.10
2023-05-13T17:58:25.342Z,4.10
2023-05-13T18:03:26.909Z,7.70
2023-05-13T18:08:28.620Z,3.80
2023-05-13T18:13:30.256Z,3.70
2023-05-13T18:18:31.890Z,5.10
2023-05-13T18:23:33.428Z,3.10
2023-05-13T18:28:34.898Z,3.50
2023-05-13T18:33:36.374Z,3.30
2023-05-13T18:38:38.519Z,5.00
2023-05-13T18:43:39.999Z,4.80
2023-05-13T18:48:41.582Z,4.40
2023-05-13T18:53:43.087Z,4.90
2023-05-13T18:58:46.757Z,6.40
2023-05-13T19:03:48.441Z,6.70
2023-05-13T19:08:50.284Z,8.40
2023-05-13T19:13:51.938Z,7.10
2023-05-13T19:18:53.732Z,7.30
2023-05-13T19:23:55.236Z,8.20
2023-05-13T19:28:56.745Z,11.20
2023-05-13T19:33:58.311Z,9.60
2023-05-13T19:38:59.804Z,9.70
2023-05-13T19:44:01.572Z,10.10
2023-05-13T19:49:03.156Z,8.70
2023-05-13T19:54:06.785Z,9.00
2023-05-13T19:59:08.751Z,9.90
2023-05-13T20:04:10.417Z,8.00
2023-05-13T20:09:12.127Z,7.00
2023-05-13T20:14:13.650Z,11.00
2023-05-13T20:19:15.159Z,9.50
2023-05-13T20:24:16.836Z,11.20
2023-05-13T20:29:18.322Z,10.00
2023-05-13T20:34:19.998Z,10.60
2023-05-13T20:39:21.503Z,9.70
2023-05-13T20:44:23.754Z,9.60
2023-05-13T20:49:25.300Z,22.80
2023-05-13T20:54:26.795Z,11.70
2023-05-13T20:59:28.350Z,12.60
2023-05-13T21:04:29.970Z,11.90
2023-05-13T21:09:31.448Z,15.00
2023-05-13T21:14:32.981Z,16.00
2023-05-13T21:19:34.745Z,15.80
2023-05-13T21:24:36.307Z,14.30
2023-05-13T21:29:37.838Z,13.70
2023-05-13T21:34:39.466Z,16.60
2023-05-13T21:39:42.294Z,29.80
2023-05-13T21:44:43.785Z,33.30
2023-05-13T21:49:45.496Z,24.20
2023-05-13T21:54:46.984Z,18.90
2023-05-13T21:59:48.481Z,18.30
2023-05-13T22:04:49.979Z,18.90
2023-05-13T22:09:51.495Z,18.20
2023-05-13T22:14:53.358Z,19.90
2023-05-13T22:19:55.027Z,19.50
2023-05-13T22:24:59.918Z,17.70
2023-05-13T22:30:01.432Z,16.30
2023-05-13T22:35:03.122Z,14.80
2023-05-13T22:40:05.922Z,14.50
2023-05-13T22:45:08.319Z,15.30
2023-05-13T22:50:12.341Z,16.70
2023-05-13T22:55:14.241Z,16.10
2023-05-13T23:00:16.703Z,17.70
2023-05-13T23:05:18.673Z,16.70
2023-05-13T23:10:20.206Z,23.10
2023-05-13T23:15:21.787Z,21.50
2023-05-13T23:20:23.627Z,21.80
2023-05-13T23:25:25.667Z,14.10
2023-05-13T23:30:34.033Z,11.90
2023-05-13T23:35:35.622Z,11.10
2023-05-13T23:40:37.114Z,11.20
2023-05-13T23:45:38.677Z,9.50
2023-05-13T23:50:41.907Z,10.10
2023-05-13T23:55:43.368Z,9.20
